Terminal Aerodrome Forecast
Issued by NWS

Home | Current Version | Previous Version | Text Only | Print | Product List | Glossary On
Versions: 1 2 3 4 5 6 7 8 9 10 11 12 13 14 15 16 17
348
FTUS41 KBTV 030542
TAFRUT
TAF
KRUT 030542Z 0306/0406 34003KT P6SM OVC008
     FM031000 VRB03KT 5SM BR SCT003 OVC015
     FM031300 VRB03KT 6SM BR SCT003 BKN025
     FM031600 00000KT P6SM BKN050
     FM040000 12004KT P6SM SCT050
     FM040100 13005KT P6SM BKN045
      AMD LTD TO CLD VIS AND WIND=

USA.gov is the U.S. government's official web portal to all federal, state and local government web resources and services.